createdAt,value
2019-04-30T00:00:39.915Z,6.70
2019-04-30T00:03:11.500Z,6.70
2019-04-30T00:05:40.596Z,6.60
2019-04-30T00:08:09.291Z,6.50
2019-04-30T00:10:41.320Z,6.50
2019-04-30T00:13:10.551Z,6.40
2019-04-30T00:15:39.039Z,6.40
2019-04-30T00:18:07.735Z,6.40
2019-04-30T00:20:38.595Z,6.30
2019-04-30T00:23:07.373Z,6.30
2019-04-30T00:25:36.264Z,6.40
2019-04-30T00:28:08.623Z,6.40
2019-04-30T00:30:39.369Z,6.30
2019-04-30T00:33:06.201Z,6.30
2019-04-30T00:35:35.539Z,6.30
2019-04-30T00:38:05.083Z,6.30
2019-04-30T00:40:35.220Z,6.20
2019-04-30T00:43:09.915Z,6.20
2019-04-30T00:45:39.928Z,6.10
2019-04-30T00:48:09.148Z,6.20
2019-04-30T00:50:37.851Z,6.20
2019-04-30T00:53:12.547Z,6.20
2019-04-30T00:55:40.208Z,6.20
2019-04-30T00:58:07.279Z,6.20
2019-04-30T01:00:37.607Z,6.10
2019-04-30T01:03:10.612Z,6.10
2019-04-30T01:05:39.531Z,6.00
2019-04-30T01:08:10.217Z,6.10
2019-04-30T01:10:38.911Z,6.00
2019-04-30T01:13:11.827Z,6.00
2019-04-30T01:15:39.084Z,5.90
2019-04-30T01:18:09.359Z,6.00
2019-04-30T01:20:38.672Z,6.00
2019-04-30T01:23:11.243Z,6.00
2019-04-30T01:25:43.191Z,6.00
2019-04-30T01:28:10.789Z,5.90
2019-04-30T01:30:39.719Z,5.90
2019-04-30T01:33:09.150Z,5.80
2019-04-30T01:35:38.237Z,5.90
2019-04-30T01:38:11.646Z,5.90
2019-04-30T01:40:59.642Z,5.90
2019-04-30T01:43:33.529Z,5.80
2019-04-30T01:46:03.257Z,5.90
2019-04-30T01:48:29.301Z,5.90
2019-04-30T01:50:58.687Z,5.90
2019-04-30T01:53:28.606Z,6.00
2019-04-30T01:55:59.255Z,5.90
2019-04-30T01:58:30.192Z,5.90
2019-04-30T02:01:03.671Z,5.90
2019-04-30T02:03:32.366Z,5.80
2019-04-30T02:06:01.052Z,5.90
2019-04-30T02:08:29.750Z,5.80
2019-04-30T02:10:59.421Z,5.70
2019-04-30T02:13:31.159Z,5.70
2019-04-30T02:15:59.236Z,5.60
2019-04-30T02:18:29.629Z,5.60
2019-04-30T02:20:59.483Z,5.60
2019-04-30T02:23:29.710Z,5.60
2019-04-30T02:25:59.109Z,5.60
2019-04-30T02:28:29.030Z,5.60
2019-04-30T02:30:59.898Z,5.60
2019-04-30T02:33:30.611Z,5.50
2019-04-30T02:36:06.924Z,5.40
2019-04-30T02:38:39.547Z,5.40
2019-04-30T02:41:09.837Z,5.30
2019-04-30T02:43:40.974Z,5.30
2019-04-30T02:46:12.243Z,5.30
2019-04-30T02:48:42.636Z,5.30
2019-04-30T02:51:13.904Z,5.20
2019-04-30T02:54:00.653Z,5.20
2019-04-30T02:56:30.067Z,5.20
2019-04-30T02:59:00.443Z,5.20
2019-04-30T03:01:30.501Z,5.20
2019-04-30T03:03:59.910Z,5.10
2019-04-30T03:06:30.404Z,5.10
2019-04-30T03:09:01.177Z,5.20
2019-04-30T03:11:30.185Z,5.20
2019-04-30T03:13:59.422Z,5.30
2019-04-30T03:16:35.861Z,5.30
2019-04-30T03:19:09.702Z,5.40
2019-04-30T03:21:41.817Z,5.40
2019-04-30T03:24:11.327Z,5.40
2019-04-30T03:26:40.515Z,5.40
2019-04-30T03:29:11.139Z,5.50
2019-04-30T03:31:44.290Z,5.50
2019-04-30T03:34:16.783Z,5.50
2019-04-30T03:36:40.794Z,5.50
2019-04-30T03:39:10.858Z,5.60
2019-04-30T03:41:41.399Z,5.70
2019-04-30T03:44:24.753Z,5.80
2019-04-30T03:46:40.907Z,5.80
2019-04-30T03:49:12.599Z,5.90
2019-04-30T03:51:40.493Z,5.90
2019-04-30T03:54:10.070Z,6.00
2019-04-30T03:56:39.874Z,6.00
2019-04-30T03:59:10.667Z,6.10
2019-04-30T04:02:02.897Z,6.20
2019-04-30T04:04:33.303Z,6.20
2019-04-30T04:07:20.360Z,6.20
2019-04-30T04:09:50.783Z,6.30
2019-04-30T04:12:26.219Z,6.30
2019-04-30T04:14:55.001Z,6.30
2019-04-30T04:17:23.748Z,6.40
2019-04-30T04:19:52.439Z,6.40
2019-04-30T04:22:21.435Z,6.50
2019-04-30T04:24:50.928Z,6.50
2019-04-30T04:27:19.890Z,6.50
2019-04-30T04:29:51.060Z,6.50
2019-04-30T04:32:20.632Z,6.50
2019-04-30T04:34:50.467Z,6.60
2019-04-30T04:37:20.327Z,6.60
2019-04-30T04:39:50.170Z,6.70
2019-04-30T04:42:19.804Z,6.70
2019-04-30T04:44:50.290Z,6.80
2019-04-30T04:47:19.824Z,6.80
2019-04-30T04:49:53.076Z,6.80
2019-04-30T04:52:21.544Z,6.90
2019-04-30T04:54:50.606Z,7.00
2019-04-30T04:57:22.749Z,7.00
2019-04-30T04:59:50.270Z,7.00
2019-04-30T05:02:39.688Z,7.10
2019-04-30T05:05:09.641Z,7.10
2019-04-30T05:07:39.929Z,7.10
2019-04-30T05:10:09.374Z,7.10
2019-04-30T05:12:39.843Z,7.20
2019-04-30T05:15:09.518Z,7.30
2019-04-30T05:17:39.786Z,7.40
2019-04-30T05:20:10.062Z,7.50
2019-04-30T05:22:39.024Z,7.50
2019-04-30T05:25:08.901Z,7.60
2019-04-30T05:27:39.210Z,7.70
2019-04-30T05:30:09.683Z,7.70
2019-04-30T05:32:39.295Z,7.80
2019-04-30T05:35:09.592Z,7.90
2019-04-30T05:37:38.598Z,7.90
2019-04-30T05:40:09.149Z,8.00
2019-04-30T05:42:38.725Z,8.20
2019-04-30T05:45:09.327Z,8.40
2019-04-30T05:47:38.917Z,8.50
2019-04-30T05:50:08.957Z,8.70
2019-04-30T05:52:39.822Z,8.90
2019-04-30T05:55:08.706Z,9.00
2019-04-30T05:57:40.789Z,9.00
2019-04-30T06:00:10.067Z,9.10
2019-04-30T06:02:40.032Z,9.30
2019-04-30T06:05:09.290Z,9.40
2019-04-30T06:07:39.540Z,9.50
2019-04-30T06:10:16.108Z,9.70
2019-04-30T06:12:46.443Z,9.80
2019-04-30T06:15:25.887Z,9.90
2019-04-30T06:18:00.929Z,10.00
2019-04-30T06:20:25.583Z,10.00
2019-04-30T06:22:55.987Z,10.00
2019-04-30T06:25:32.336Z,10.00
2019-04-30T06:27:55.355Z,10.10
2019-04-30T06:30:25.625Z,10.10
2019-04-30T06:32:54.819Z,10.10
2019-04-30T06:35:23.911Z,9.90
2019-04-30T06:37:52.603Z,9.60
2019-04-30T06:40:21.403Z,9.70
2019-04-30T06:42:50.092Z,9.60
2019-04-30T06:45:19.145Z,9.70
2019-04-30T06:47:49.025Z,9.70
2019-04-30T06:50:19.415Z,9.80
2019-04-30T06:52:56.683Z,9.70
2019-04-30T06:55:19.252Z,9.70
2019-04-30T06:57:49.693Z,9.60
2019-04-30T07:00:19.570Z,9.40
2019-04-30T07:02:49.531Z,9.40
2019-04-30T07:05:18.715Z,9.40
2019-04-30T07:07:57.418Z,9.40
2019-04-30T07:10:21.279Z,9.30
2019-04-30T07:12:51.623Z,9.20
2019-04-30T07:15:20.379Z,9.30
2019-04-30T07:17:49.307Z,9.20
2019-04-30T07:20:19.132Z,9.30
2019-04-30T07:22:52.396Z,9.30
2019-04-30T07:25:19.555Z,9.30
2019-04-30T07:27:50.499Z,9.40
2019-04-30T07:30:19.240Z,9.40
2019-04-30T07:32:48.795Z,9.40
2019-04-30T07:35:19.466Z,9.50
2019-04-30T07:37:49.798Z,9.50
2019-04-30T07:40:19.032Z,9.60
2019-04-30T07:42:49.296Z,9.50
2019-04-30T07:45:19.446Z,9.60
2019-04-30T07:47:49.455Z,9.60
2019-04-30T07:50:21.487Z,9.60
2019-04-30T07:53:01.583Z,9.60
2019-04-30T07:55:19.738Z,9.60
2019-04-30T07:57:50.657Z,9.70
2019-04-30T08:00:19.311Z,9.70
2019-04-30T08:03:05.491Z,9.70
2019-04-30T08:05:36.024Z,9.70
2019-04-30T08:08:17.719Z,9.90
2019-04-30T08:10:35.158Z,9.90
2019-04-30T08:13:10.101Z,10.00
2019-04-30T08:15:34.197Z,10.10
2019-04-30T08:18:05.861Z,10.20
2019-04-30T08:20:33.264Z,10.10
2019-04-30T08:23:13.410Z,10.10
2019-04-30T08:25:32.316Z,10.10
2019-04-30T08:28:01.055Z,10.10
2019-04-30T08:30:30.110Z,10.20
2019-04-30T08:32:59.602Z,10.20
2019-04-30T08:35:29.641Z,10.30
2019-04-30T08:37:59.074Z,10.20
2019-04-30T08:40:29.590Z,10.00
2019-04-30T08:42:59.509Z,10.00
2019-04-30T08:45:31.079Z,10.00
2019-04-30T08:47:59.079Z,9.90
2019-04-30T08:50:29.683Z,10.00
2019-04-30T08:52:59.774Z,10.00
2019-04-30T08:55:30.485Z,10.00
2019-04-30T08:58:09.276Z,10.10
2019-04-30T09:00:29.818Z,10.20
2019-04-30T09:02:59.350Z,10.30
2019-04-30T09:05:35.884Z,10.50
2019-04-30T09:08:06.420Z,10.70
2019-04-30T09:10:35.123Z,10.70
2019-04-30T09:13:03.832Z,10.90
2019-04-30T09:15:32.591Z,11.00
2019-04-30T09:18:06.367Z,11.10
2019-04-30T09:20:31.622Z,11.10
2019-04-30T09:23:00.319Z,11.20
2019-04-30T09:25:29.013Z,11.30
2019-04-30T09:27:58.790Z,11.30
2019-04-30T09:30:29.803Z,11.40
2019-04-30T09:32:59.474Z,11.60
2019-04-30T09:35:31.771Z,11.90
2019-04-30T09:38:01.400Z,12.20
2019-04-30T09:40:32.316Z,12.40
2019-04-30T09:43:00.464Z,13.00
2019-04-30T09:45:29.410Z,13.40
2019-04-30T09:47:59.254Z,13.60
2019-04-30T09:50:29.045Z,13.80
2019-04-30T09:53:00.177Z,14.00
2019-04-30T09:55:29.066Z,14.10
2019-04-30T09:57:58.879Z,13.80
2019-04-30T10:00:29.500Z,13.80
2019-04-30T10:02:59.897Z,13.90
2019-04-30T10:05:29.257Z,14.00
2019-04-30T10:07:59.445Z,14.60
2019-04-30T10:10:29.972Z,15.30
2019-04-30T10:12:59.295Z,16.30
2019-04-30T10:15:42.199Z,17.10
2019-04-30T10:18:10.903Z,17.30
2019-04-30T10:20:44.083Z,17.50
2019-04-30T10:23:12.792Z,17.30
2019-04-30T10:25:41.479Z,18.30
2019-04-30T10:28:10.286Z,18.00
2019-04-30T10:30:39.442Z,18.70
2019-04-30T10:33:10.014Z,19.20
2019-04-30T10:35:38.677Z,19.00
2019-04-30T10:38:09.706Z,19.40
2019-04-30T10:40:39.030Z,20.70
2019-04-30T10:43:08.911Z,20.40
2019-04-30T10:45:38.810Z,21.00
2019-04-30T10:48:08.994Z,19.80
2019-04-30T10:50:40.793Z,19.70
2019-04-30T10:53:09.155Z,20.60
2019-04-30T10:55:38.769Z,21.90
2019-04-30T10:58:07.551Z,22.70
2019-04-30T11:00:41.683Z,23.00
2019-04-30T11:03:19.052Z,21.70
2019-04-30T11:05:41.427Z,22.60
2019-04-30T11:08:10.231Z,22.60
2019-04-30T11:10:39.925Z,24.10
2019-04-30T11:13:08.878Z,23.20
2019-04-30T11:15:39.314Z,22.40
2019-04-30T11:18:08.064Z,22.00
2019-04-30T11:20:36.944Z,23.50
2019-04-30T11:23:14.263Z,25.20
2019-04-30T11:25:37.110Z,22.60
2019-04-30T11:28:06.876Z,21.30
2019-04-30T11:30:36.772Z,21.60
2019-04-30T11:33:06.166Z,21.50
2019-04-30T11:35:35.171Z,21.10
2019-04-30T11:38:04.275Z,21.80
2019-04-30T11:40:37.195Z,21.00
2019-04-30T11:43:03.931Z,20.90
2019-04-30T11:45:47.840Z,21.50
2019-04-30T11:48:16.739Z,21.70
2019-04-30T11:50:45.455Z,20.40
2019-04-30T11:53:24.512Z,20.00
2019-04-30T11:55:44.511Z,20.60
2019-04-30T11:58:21.338Z,21.10
2019-04-30T12:00:45.227Z,21.40
2019-04-30T12:03:13.924Z,21.50
2019-04-30T12:05:42.694Z,21.20
2019-04-30T12:08:16.044Z,20.60
2019-04-30T12:10:46.591Z,19.80
2019-04-30T12:13:22.699Z,19.40
2019-04-30T12:15:51.547Z,19.80
2019-04-30T12:18:20.235Z,20.20
2019-04-30T12:20:48.928Z,20.70
2019-04-30T12:23:19.003Z,21.00
2019-04-30T12:25:49.303Z,21.20
2019-04-30T12:28:19.562Z,20.90
2019-04-30T12:30:49.061Z,20.20
2019-04-30T12:33:19.202Z,19.50
2019-04-30T12:35:51.018Z,19.40
2019-04-30T12:38:19.202Z,19.70
2019-04-30T12:40:48.095Z,19.20
2019-04-30T12:43:16.786Z,19.80
2019-04-30T12:45:45.495Z,19.30
2019-04-30T12:48:20.345Z,19.00
2019-04-30T12:50:53.415Z,19.40
2019-04-30T12:53:23.751Z,19.50
2019-04-30T12:56:02.895Z,19.60
2019-04-30T12:58:31.663Z,19.10
2019-04-30T13:01:00.428Z,19.40
2019-04-30T13:03:30.819Z,19.60
2019-04-30T13:06:01.312Z,19.70
2019-04-30T13:08:30.418Z,19.70
2019-04-30T13:10:59.967Z,19.80
2019-04-30T13:13:31.729Z,19.60
2019-04-30T13:16:00.032Z,19.60
2019-04-30T13:18:29.613Z,20.10
2019-04-30T13:20:58.844Z,21.40
2019-04-30T13:23:29.659Z,21.90
2019-04-30T13:25:58.444Z,22.50
2019-04-30T13:28:46.282Z,23.30
2019-04-30T13:31:15.051Z,23.60
2019-04-30T13:34:00.965Z,23.70
2019-04-30T13:36:27.554Z,24.30
2019-04-30T13:39:03.523Z,23.40
2019-04-30T13:41:45.888Z,22.70
2019-04-30T13:44:14.379Z,22.50
2019-04-30T13:46:43.078Z,22.40
2019-04-30T13:49:11.778Z,22.70
2019-04-30T13:51:42.873Z,22.40
2019-04-30T13:54:10.834Z,21.10
2019-04-30T13:56:39.740Z,21.30
2019-04-30T13:59:08.541Z,21.30
2019-04-30T14:01:39.094Z,20.80
2019-04-30T14:04:15.751Z,21.40
2019-04-30T14:07:02.831Z,21.40
2019-04-30T14:09:33.167Z,21.50
2019-04-30T14:12:01.875Z,21.50
2019-04-30T14:14:30.570Z,21.10
2019-04-30T14:17:01.215Z,20.90
2019-04-30T14:19:29.898Z,20.60
2019-04-30T14:21:59.027Z,20.70
2019-04-30T14:24:27.851Z,21.00
2019-04-30T14:26:56.547Z,21.40
2019-04-30T14:29:25.256Z,21.30
2019-04-30T14:31:54.163Z,21.50
2019-04-30T14:34:22.867Z,20.90
2019-04-30T14:36:51.563Z,20.70
2019-04-30T14:39:20.481Z,20.50
2019-04-30T14:41:51.957Z,20.80
2019-04-30T14:44:31.199Z,21.10
2019-04-30T14:46:59.690Z,21.30
2019-04-30T14:49:42.204Z,21.10
2019-04-30T14:52:11.536Z,21.30
2019-04-30T14:55:18.761Z,21.00
2019-04-30T14:57:55.035Z,20.90
2019-04-30T15:00:43.688Z,20.10
2019-04-30T15:03:20.315Z,20.20
2019-04-30T15:05:51.610Z,20.30
2019-04-30T15:08:19.494Z,20.40
2019-04-30T15:10:48.184Z,20.70
2019-04-30T15:13:16.948Z,20.90
2019-04-30T15:15:45.657Z,20.60
2019-04-30T15:18:14.439Z,20.50
2019-04-30T15:20:43.148Z,20.40
2019-04-30T15:23:22.491Z,20.20
2019-04-30T15:25:51.355Z,20.10
2019-04-30T15:28:20.059Z,19.70
2019-04-30T15:30:48.940Z,19.60
2019-04-30T15:33:38.544Z,19.60
2019-04-30T15:36:09.635Z,19.30
2019-04-30T15:38:55.674Z,19.10
2019-04-30T15:41:24.639Z,19.20
2019-04-30T15:43:53.414Z,19.30
2019-04-30T15:46:22.194Z,19.30
2019-04-30T15:48:50.887Z,19.20
2019-04-30T15:51:19.595Z,19.00
2019-04-30T15:53:48.295Z,18.80
2019-04-30T15:56:16.999Z,18.80
2019-04-30T15:58:59.239Z,18.90
2019-04-30T16:01:29.061Z,18.90
2019-04-30T16:03:57.987Z,18.70
2019-04-30T16:06:28.465Z,18.70
2019-04-30T16:08:58.624Z,18.70
2019-04-30T16:11:31.891Z,18.80
2019-04-30T16:14:18.651Z,18.90
2019-04-30T16:16:49.051Z,18.90
2019-04-30T16:19:18.788Z,18.90
2019-04-30T16:21:47.627Z,18.90
2019-04-30T16:24:18.558Z,18.90
2019-04-30T16:26:50.633Z,18.90
2019-04-30T16:29:17.199Z,18.90
2019-04-30T16:31:45.963Z,18.80
2019-04-30T16:34:14.666Z,18.80
2019-04-30T16:36:43.363Z,18.70
2019-04-30T16:39:12.167Z,18.70
2019-04-30T16:41:40.988Z,18.60
2019-04-30T16:44:09.703Z,18.50
2019-04-30T16:46:39.534Z,18.50
2019-04-30T16:49:10.205Z,18.40
2019-04-30T16:51:38.718Z,18.30
2019-04-30T16:54:08.634Z,18.30
2019-04-30T16:56:38.698Z,18.20
2019-04-30T16:59:09.110Z,18.20
2019-04-30T17:01:38.121Z,18.00
2019-04-30T17:04:19.098Z,18.00
2019-04-30T17:07:05.415Z,17.90
2019-04-30T17:09:35.753Z,17.70
2019-04-30T17:12:08.485Z,17.50
2019-04-30T17:14:38.834Z,17.40
2019-04-30T17:17:07.674Z,17.20
2019-04-30T17:19:36.380Z,17.10
2019-04-30T17:22:05.175Z,17.00
2019-04-30T17:24:33.883Z,16.90
2019-04-30T17:27:02.579Z,16.90
2019-04-30T17:29:31.299Z,16.80
2019-04-30T17:32:00.063Z,16.70
2019-04-30T17:34:28.884Z,16.70
2019-04-30T17:36:59.209Z,16.70
2019-04-30T17:39:28.175Z,16.60
2019-04-30T17:41:56.882Z,16.50
2019-04-30T17:44:25.668Z,16.40
2019-04-30T17:46:54.297Z,16.30
2019-04-30T17:49:22.991Z,16.20
2019-04-30T17:51:51.723Z,16.10
2019-04-30T17:54:20.403Z,16.00
2019-04-30T17:56:49.098Z,15.80
2019-04-30T17:59:17.803Z,15.70
2019-04-30T18:01:49.620Z,15.60
2019-04-30T18:04:18.708Z,15.40
2019-04-30T18:06:48.386Z,15.30
2019-04-30T18:09:19.211Z,15.20
2019-04-30T18:11:49.606Z,15.00
2019-04-30T18:14:18.815Z,14.90
2019-04-30T18:16:48.640Z,14.80
2019-04-30T18:19:19.176Z,14.60
2019-04-30T18:21:59.681Z,14.50
2019-04-30T18:24:39.446Z,14.40
2019-04-30T18:27:16.219Z,14.30
2019-04-30T18:29:46.387Z,14.10
2019-04-30T18:32:15.495Z,14.10
2019-04-30T18:34:44.191Z,14.00
2019-04-30T18:37:12.906Z,14.00
2019-04-30T18:39:41.599Z,13.90
2019-04-30T18:42:11.078Z,13.90
2019-04-30T18:44:39.855Z,14.10
2019-04-30T18:47:09.053Z,14.20
2019-04-30T18:49:39.457Z,14.30
2019-04-30T18:52:09.105Z,14.40
2019-04-30T18:54:39.717Z,14.50
2019-04-30T18:57:08.355Z,14.60
2019-04-30T18:59:37.052Z,14.70
2019-04-30T19:02:07.699Z,14.60
2019-04-30T19:04:38.897Z,14.50
2019-04-30T19:07:11.130Z,14.40
2019-04-30T19:09:41.470Z,14.20
2019-04-30T19:12:19.412Z,14.00
2019-04-30T19:15:06.247Z,14.00
2019-04-30T19:17:52.747Z,13.80
2019-04-30T19:20:23.088Z,13.80
2019-04-30T19:22:51.796Z,13.70
2019-04-30T19:25:20.559Z,13.60
2019-04-30T19:27:49.663Z,13.60
2019-04-30T19:30:19.376Z,13.70
2019-04-30T19:32:49.152Z,13.80
2019-04-30T19:35:18.778Z,13.70
2019-04-30T19:37:48.689Z,13.50
2019-04-30T19:40:18.994Z,13.30
2019-04-30T19:42:50.260Z,13.20
2019-04-30T19:45:18.224Z,13.10
2019-04-30T19:47:48.857Z,13.00
2019-04-30T19:50:19.134Z,12.90
2019-04-30T19:52:47.915Z,12.80
2019-04-30T19:55:20.479Z,12.70
2019-04-30T19:57:48.403Z,12.60
2019-04-30T20:00:17.751Z,12.50
2019-04-30T20:02:48.571Z,12.40
2019-04-30T20:05:16.895Z,12.50
2019-04-30T20:07:45.599Z,12.50
2019-04-30T20:10:14.295Z,12.50
2019-04-30T20:15:29.795Z,12.50
2019-04-30T20:18:00.989Z,12.60
2019-04-30T20:20:29.051Z,12.60
2019-04-30T20:22:57.819Z,12.50
2019-04-30T20:25:26.520Z,12.40
2019-04-30T20:27:55.218Z,12.40
2019-04-30T20:30:23.930Z,12.30
2019-04-30T20:32:52.654Z,12.20
2019-04-30T20:35:21.364Z,12.20
2019-04-30T20:38:09.496Z,12.20
2019-04-30T20:40:43.616Z,12.10
2019-04-30T20:43:10.637Z,12.00
2019-04-30T20:45:39.247Z,11.80
2019-04-30T20:48:08.956Z,11.70
2019-04-30T20:50:37.753Z,11.60
2019-04-30T20:53:08.731Z,11.60
2019-04-30T20:55:40.581Z,11.50
2019-04-30T20:58:09.342Z,11.50
2019-04-30T21:00:37.863Z,11.60
2019-04-30T21:03:06.558Z,11.50
2019-04-30T21:05:35.340Z,11.50
2019-04-30T21:08:04.156Z,11.40
2019-04-30T21:10:32.851Z,11.30
2019-04-30T21:13:01.556Z,11.20
2019-04-30T21:15:30.249Z,11.20
2019-04-30T21:17:59.019Z,11.10
2019-04-30T21:20:28.857Z,11.10
2019-04-30T21:22:59.486Z,11.10
2019-04-30T21:25:29.226Z,11.10
2019-04-30T21:27:59.920Z,11.00
2019-04-30T21:30:28.390Z,10.90
2019-04-30T21:33:04.715Z,10.80
2019-04-30T21:35:37.770Z,10.70
2019-04-30T21:38:06.612Z,10.60
2019-04-30T21:40:36.703Z,10.60
2019-04-30T21:43:05.506Z,10.70
2019-04-30T21:45:34.223Z,10.60
2019-04-30T21:48:02.931Z,10.70
2019-04-30T21:50:31.625Z,10.60
2019-04-30T21:53:00.527Z,10.50
2019-04-30T21:55:29.698Z,10.40
2019-04-30T21:57:59.380Z,10.40
2019-04-30T22:00:36.855Z,10.40
2019-04-30T22:03:09.579Z,10.40
2019-04-30T22:05:37.743Z,10.40
2019-04-30T22:08:06.442Z,10.50
2019-04-30T22:10:35.197Z,10.40
2019-04-30T22:13:03.888Z,10.40
2019-04-30T22:15:32.590Z,10.20
2019-04-30T22:18:01.355Z,10.20
2019-04-30T22:20:30.119Z,10.10
2019-04-30T22:22:58.820Z,10.10
2019-04-30T22:25:29.332Z,10.10
2019-04-30T22:27:57.949Z,10.00
2019-04-30T22:30:26.643Z,9.90
2019-04-30T22:32:55.546Z,9.90
2019-04-30T22:35:28.561Z,9.80
2019-04-30T22:38:01.724Z,9.80
2019-04-30T22:40:31.657Z,9.80
2019-04-30T22:43:00.419Z,9.70
2019-04-30T22:45:30.752Z,9.60
2019-04-30T22:47:59.443Z,9.60
2019-04-30T22:50:28.146Z,9.50
2019-04-30T22:52:56.835Z,9.40
2019-04-30T22:55:25.569Z,9.40
2019-04-30T22:57:54.258Z,9.30
2019-04-30T23:00:24.726Z,9.30
2019-04-30T23:02:57.937Z,9.40
2019-04-30T23:05:26.627Z,9.30
2019-04-30T23:07:55.323Z,9.20
2019-04-30T23:10:24.290Z,9.10
2019-04-30T23:12:53.086Z,8.90
2019-04-30T23:15:22.153Z,8.80
2019-04-30T23:17:51.079Z,8.60
2019-04-30T23:20:19.783Z,8.50
2019-04-30T23:22:48.487Z,8.40
2019-04-30T23:25:17.184Z,8.20
2019-04-30T23:27:45.895Z,8.20
2019-04-30T23:30:14.687Z,8.30
2019-04-30T23:32:43.382Z,8.40
2019-04-30T23:35:12.080Z,8.50
2019-04-30T23:37:40.771Z,8.50
2019-04-30T23:40:21.419Z,8.60
2019-04-30T23:42:50.415Z,8.40
2019-04-30T23:45:19.111Z,8.50
2019-04-30T23:47:47.799Z,8.40
2019-04-30T23:50:16.495Z,8.30
2019-04-30T23:52:45.187Z,8.20
2019-04-30T23:55:14.174Z,8.20
2019-04-30T23:57:42.872Z,8.20
